Florence, KY (41042)

4:03 AM EST on December 04, 2016 (GMT -0500)
Oakbrook | | Change Station

Elev 863 ft 39.01 °N, 84.68 °W | Updated 13 seconds ago

Overcast
Overcast
36.5 °F
Feels Like 36 °F
N
0.0
Wind Variable Wind from ESE
Gusts 2.0 mph

Today
High -- | Low -- °F
--% Chance of Precip.
Yesterday
High -- | Low -- °F
Precip. -- in
Pressure 30.22 in
Visibility 9.0 miles
Clouds Few 11000 ft
Overcast 15000 ft
Windchill 36 °F
Dew Point 32 °F
Humidity 83%
Rainfall 0.00 in
Snow Depth Not available.
7:41 AM 5:16 PM
Waxing Crescent, 21% visible
METAR KCVG 040852Z 10005KT 9SM FEW110 OVC150 03/M01 A3021 RMK AO2 SLP234 T00281006 58012
Pressure 30.22 in
Visibility 9.0 miles
Clouds Few 11000 ft
Overcast 15000 ft
Windchill 36 °F
Dew Point 32 °F
Humidity 83%
Rainfall 0.00 in
Snow Depth Not available.
7:41 AM 5:16 PM
Waxing Crescent, 21% visible
METAR KCVG 040852Z 10005KT 9SM FEW110 OVC150 03/M01 A3021 RMK AO2 SLP234 T00281006 58012

10-Day Weather Forecast

Almanac

Astronomy

Dec. 04, 2016 Rise Set
Actual Time
Civil Twilight
Nautical Twilight
Astronomical Twilight
Moon
Length of Visible Light
Length of Day
Tomorrow will be .
, % of the Moon is Illuminated

Today's Extremes

State Highs State Lows

Community

WunderPhotos

Upload Photos

1,955,587 photos uploaded!

WunderBlog® & News

Nearby

Air Quality

  Air Quality AQ Index Pollutant
Not available.

Snow Depth

Station Depth Elevation

Earthquake Activity

City Distance Mag. Time & Date
Minimum magnitude displayed is 2.5.

Coastal Water Temperatures

Place Temperature

Stations

Nearby Weather Stations

Station Location Temp. Windchill Dew Point Humidity Wind Precip. Elev Updated Type
                   

Watches & Warnings

There are currently no watches in effect.